Time;durP1;ratioP1;P1;durP2;ratioP2;P2;SDS_P1;SDS_P2;PMS_P1;PMS_P2;Temp;Humidity;BMP_temperature;BMP_pressure;BME280_temperature;BME280_humidity;BME280_pressure;Samples;Min_cycle;Max_cycle;Signal;HPM_P1;HPM_P2
2022/03/28 00:01:33;;;;;;;168.82;33.63;;;5.90;99.90;;;;;;5036144;28;20046;-88
2022/03/28 00:03:58;;;;;;;184.88;38.13;;;5.90;99.90;;;;;;5036797;28;20373;-88
2022/03/28 00:06:24;;;;;;;221.10;40.20;;;5.90;99.90;;;;;;5036320;28;20080;-88
2022/03/28 00:08:50;;;;;;;255.10;45.92;;;5.90;99.90;;;;;;5036526;28;20059;-87
2022/03/28 00:11:17;;;;;;;338.25;54.47;;;5.90;99.90;;;;;;5036248;28;20041;-88
2022/03/28 00:13:43;;;;;;;344.35;55.13;;;5.90;99.90;;;;;;5036006;28;20052;-88
2022/03/28 00:16:09;;;;;;;352.88;55.38;;;5.90;99.90;;;;;;5037014;28;20049;-87
2022/03/28 00:18:34;;;;;;;353.67;51.53;;;5.90;99.90;;;;;;5020008;28;20072;-88
2022/03/28 00:21:00;;;;;;;294.27;49.35;;;5.90;99.90;;;;;;5037765;28;20390;-88
2022/03/28 00:23:25;;;;;;;260.58;45.97;;;5.80;99.90;;;;;;5037444;28;20037;-87
2022/03/28 00:25:51;;;;;;;283.85;50.08;;;5.80;99.90;;;;;;5038181;28;20056;-87
2022/03/28 00:28:17;;;;;;;327.65;53.25;;;5.80;99.90;;;;;;5037252;28;20128;-87
2022/03/28 00:30:44;;;;;;;349.05;55.40;;;5.70;99.90;;;;;;5024415;28;20097;-88
2022/03/28 00:33:09;;;;;;;381.08;59.58;;;5.80;99.90;;;;;;5053677;28;20049;-88
2022/03/28 00:35:35;;;;;;;307.52;51.95;;;5.80;99.90;;;;;;5054076;28;20037;-88
2022/03/28 00:38:05;;;;;;;422.00;60.65;;;5.80;99.90;;;;;;5052074;28;20060;-88
2022/03/28 00:40:32;;;;;;;305.65;53.67;;;5.70;99.90;;;;;;5048019;28;20038;-88
2022/03/28 00:42:58;;;;;;;367.98;59.55;;;5.80;99.90;;;;;;5035056;28;20046;-88
2022/03/28 00:45:25;;;;;;;352.23;59.50;;;5.90;99.90;;;;;;5036635;28;20492;-88
2022/03/28 00:47:50;;;;;;;282.40;52.38;;;5.90;99.90;;;;;;5035667;28;20495;-88
2022/03/28 00:50:16;;;;;;;292.52;51.85;;;5.90;99.90;;;;;;5035656;28;20048;-88
2022/03/28 00:52:42;;;;;;;233.98;47.83;;;5.90;99.90;;;;;;5035406;28;20038;-88
2022/03/28 00:55:08;;;;;;;235.93;46.00;;;5.90;99.90;;;;;;5034753;28;20041;-88
2022/03/28 00:57:34;;;;;;;213.80;47.70;;;5.80;99.90;;;;;;5036373;28;20046;-88
2022/03/28 01:00:02;;;;;;;219.40;46.35;;;5.90;99.90;;;;;;5044854;28;20056;-88
2022/03/28 01:02:28;;;;;;;198.18;42.40;;;5.90;99.90;;;;;;5046268;28;20059;-88
2022/03/28 01:04:54;;;;;;;173.75;37.20;;;5.80;99.90;;;;;;5044757;28;20507;-88
2022/03/28 01:07:20;;;;;;;130.73;31.92;;;5.80;99.90;;;;;;5036752;28;20045;-88
2022/03/28 01:09:46;;;;;;;135.30;32.90;;;5.90;99.90;;;;;;5035343;28;20172;-87
2022/03/28 01:12:12;;;;;;;147.60;34.38;;;5.90;99.90;;;;;;5034558;28;20167;-87
2022/03/28 01:14:38;;;;;;;161.13;37.13;;;5.80;99.90;;;;;;5035007;28;20095;-87
2022/03/28 01:19:52;;;;;;;166.88;39.03;;;5.80;99.90;;;;;;5035165;28;20103;-88
2022/03/28 01:22:18;;;;;;;179.45;40.72;;;5.90;99.90;;;;;;5035924;28;20120;-87
2022/03/28 01:24:44;;;;;;;178.15;40.10;;;5.90;99.90;;;;;;5036347;28;20134;-87
2022/03/28 01:27:10;;;;;;;161.40;38.42;;;5.90;99.90;;;;;;5035678;28;20041;-87
2022/03/28 01:29:36;;;;;;;142.38;34.90;;;5.90;99.90;;;;;;5035847;28;20077;-88
2022/03/28 01:32:02;;;;;;;109.15;29.00;;;5.90;99.90;;;;;;5034782;28;20111;-87
2022/03/28 01:34:28;;;;;;;123.18;33.10;;;5.90;99.90;;;;;;5017481;28;20037;-87
2022/03/28 01:36:53;;;;;;;117.88;29.58;;;5.70;99.90;;;;;;5034034;28;20408;-87
2022/03/28 01:39:19;;;;;;;123.15;31.88;;;5.80;99.90;;;;;;5034203;28;20500;-88
2022/03/28 01:41:46;;;;;;;155.43;34.58;;;5.70;99.90;;;;;;5035786;28;20037;-88
2022/03/28 01:44:13;;;;;;;135.38;32.78;;;5.70;99.90;;;;;;5029575;22;20502;-76
2022/03/28 01:46:47;;;;;;;138.85;35.75;;;5.80;99.90;;;;;;4992973;28;20081;-76
2022/03/28 01:49:18;;;;;;;135.57;35.67;;;5.70;99.90;;;;;;4974111;28;20093;-76
2022/03/28 01:51:44;;;;;;;122.47;30.75;;;5.70;99.90;;;;;;4985145;28;20558;-76
2022/03/28 01:54:10;;;;;;;129.80;33.30;;;5.60;99.90;;;;;;5012452;28;20098;-76
2022/03/28 01:56:37;;;;;;;106.25;29.70;;;5.60;99.90;;;;;;5013889;28;20042;-76
2022/03/28 01:59:04;;;;;;;107.45;31.10;;;5.60;99.90;;;;;;4996523;28;20050;-76
2022/03/28 02:01:31;;;;;;;96.57;27.45;;;5.60;99.90;;;;;;5000055;28;20125;-79
2022/03/28 02:03:57;;;;;;;87.82;25.98;;;5.50;99.90;;;;;;4992699;28;20045;-80
2022/03/28 02:06:23;;;;;;;92.97;28.75;;;5.40;99.90;;;;;;4993537;28;20050;-79
2022/03/28 02:08:49;;;;;;;86.93;28.50;;;5.40;99.90;;;;;;4994055;28;20046;-76
2022/03/28 02:11:14;;;;;;;93.60;27.83;;;5.40;99.90;;;;;;4993672;28;20129;-77
2022/03/28 02:13:40;;;;;;;83.68;26.50;;;5.40;99.90;;;;;;4994141;28;20038;-77
2022/03/28 02:16:06;;;;;;;88.10;28.52;;;5.40;99.90;;;;;;4994058;28;20144;-76
2022/03/28 02:18:32;;;;;;;86.32;27.15;;;5.40;99.90;;;;;;5009573;28;20074;-76
2022/03/28 02:20:57;;;;;;;96.03;28.48;;;5.30;99.90;;;;;;5013194;28;20085;-76
2022/03/28 02:23:23;;;;;;;94.07;27.90;;;5.30;99.90;;;;;;5013575;28;20045;-76
2022/03/28 02:25:49;;;;;;;83.38;27.20;;;5.30;99.90;;;;;;5013302;28;20053;-76
2022/03/28 02:28:14;;;;;;;83.32;27.30;;;5.30;99.90;;;;;;5012402;28;20380;-76
2022/03/28 02:30:40;;;;;;;99.85;30.65;;;5.30;99.90;;;;;;5013556;28;20061;-77
2022/03/28 02:33:07;;;;;;;111.30;32.70;;;5.30;99.90;;;;;;5013473;28;20042;-77
2022/03/28 02:35:33;;;;;;;98.47;32.20;;;5.30;99.90;;;;;;5013073;28;20053;-76
2022/03/28 02:38:01;;;;;;;86.47;29.50;;;5.30;99.90;;;;;;5013308;28;20129;-76
2022/03/28 02:40:32;;;;;;;91.90;29.25;;;5.40;99.90;;;;;;5013414;28;20455;-76
2022/03/28 02:42:58;;;;;;;102.13;31.38;;;5.30;99.90;;;;;;5013197;28;20089;-76
2022/03/28 02:45:30;;;;;;;97.40;32.00;;;5.30;99.90;;;;;;5013141;28;20056;-76
2022/03/28 02:47:56;;;;;;;93.15;28.65;;;5.30;99.90;;;;;;5013354;28;20477;-80
2022/03/28 02:50:22;;;;;;;91.95;30.05;;;5.30;99.90;;;;;;5014265;28;20045;-80
2022/03/28 02:52:48;;;;;;;96.85;32.40;;;5.30;99.90;;;;;;5014396;28;20103;-80
2022/03/28 02:55:14;;;;;;;99.65;34.15;;;5.30;99.90;;;;;;5014586;28;20042;-76
2022/03/28 02:57:40;;;;;;;89.57;31.58;;;5.30;99.90;;;;;;5013708;28;20119;-76
2022/03/28 03:00:10;;;;;;;95.03;34.63;;;5.20;99.90;;;;;;5013022;28;20081;-80
2022/03/28 03:02:40;;;;;;;101.55;34.47;;;5.20;99.90;;;;;;5013361;28;20443;-79
2022/03/28 03:05:07;;;;;;;98.38;33.15;;;5.20;99.90;;;;;;5013026;28;20046;-76
2022/03/28 03:07:33;;;;;;;95.07;33.88;;;5.20;99.90;;;;;;5013175;28;20404;-76
2022/03/28 03:09:58;;;;;;;100.30;33.38;;;5.30;99.90;;;;;;5011839;28;20038;-77
2022/03/28 03:12:24;;;;;;;110.45;35.42;;;5.30;99.90;;;;;;5012761;28;20516;-79
2022/03/28 03:14:50;;;;;;;97.88;31.40;;;5.30;99.90;;;;;;5012393;28;20049;-80
2022/03/28 03:17:16;;;;;;;100.88;34.70;;;5.30;99.90;;;;;;5013235;28;20088;-80
2022/03/28 03:19:42;;;;;;;96.60;32.25;;;5.30;99.90;;;;;;5011424;28;20049;-79
2022/03/28 03:22:08;;;;;;;83.72;28.90;;;5.30;99.90;;;;;;5015243;28;20429;-79
2022/03/28 03:24:34;;;;;;;86.20;30.02;;;5.30;99.90;;;;;;5016402;28;20490;-79
2022/03/28 03:27:00;;;;;;;77.65;27.90;;;5.30;99.90;;;;;;5016200;28;20050;-79
2022/03/28 03:29:26;;;;;;;66.95;27.17;;;5.30;99.90;;;;;;5015315;28;20038;-79
2022/03/28 03:31:52;;;;;;;59.17;21.90;;;5.20;99.90;;;;;;5015443;28;20096;-79
2022/03/28 03:34:18;;;;;;;53.72;19.48;;;5.20;99.90;;;;;;5016072;28;20179;-79
2022/03/28 03:36:44;;;;;;;58.05;21.70;;;5.20;99.90;;;;;;5016216;28;20068;-80
2022/03/28 03:39:09;;;;;;;54.25;19.67;;;5.20;99.90;;;;;;5016227;28;20480;-77
2022/03/28 03:41:35;;;;;;;59.50;21.92;;;5.20;99.90;;;;;;5017426;28;20097;-77
2022/03/28 03:44:01;;;;;;;59.67;22.55;;;5.20;99.90;;;;;;4999149;28;20137;-77
2022/03/28 03:46:26;;;;;;;63.67;24.02;;;5.20;99.90;;;;;;5016888;28;20046;-76
2022/03/28 03:48:52;;;;;;;57.67;20.88;;;5.20;99.90;;;;;;5016566;28;20405;-77
2022/03/28 03:51:18;;;;;;;71.03;24.15;;;5.20;99.90;;;;;;5016480;28;20501;-76
2022/03/28 03:53:43;;;;;;;71.53;23.13;;;5.30;99.90;;;;;;5016143;28;20061;-77
2022/03/28 03:56:09;;;;;;;79.30;23.45;;;5.20;99.90;;;;;;5016898;28;20045;-77
2022/03/28 03:58:35;;;;;;;82.18;24.90;;;5.30;99.90;;;;;;5015680;28;20077;-76
2022/03/28 04:01:00;;;;;;;73.68;22.58;;;5.30;99.90;;;;;;5016122;28;20038;-76
2022/03/28 04:03:26;;;;;;;77.13;23.42;;;5.20;99.90;;;;;;5015847;28;20092;-78
2022/03/28 04:05:52;;;;;;;76.15;22.35;;;5.30;99.90;;;;;;5015765;28;20042;-78
2022/03/28 04:08:17;;;;;;;74.63;22.85;;;5.20;99.90;;;;;;5015886;28;20087;-78
2022/03/28 04:10:43;;;;;;;79.07;23.42;;;5.30;99.90;;;;;;5015484;28;20049;-78
2022/03/28 04:13:10;;;;;;;80.05;21.85;;;5.20;99.90;;;;;;5015208;28;20077;-78
2022/03/28 04:15:36;;;;;;;73.03;20.27;;;5.20;99.90;;;;;;5014024;28;20096;-76
2022/03/28 04:18:01;;;;;;;80.78;21.25;;;5.20;99.90;;;;;;5014224;28;20037;-77
2022/03/28 04:20:29;;;;;;;75.68;20.20;;;5.10;99.90;;;;;;5015523;28;20578;-77
2022/03/28 04:22:55;;;;;;;100.93;22.05;;;5.10;99.90;;;;;;5015470;28;20519;-77
2022/03/28 04:25:20;;;;;;;111.20;24.48;;;5.00;99.90;;;;;;5013777;28;20046;-78
2022/03/28 04:27:46;;;;;;;116.00;22.15;;;5.00;99.90;;;;;;5015019;28;20147;-77
2022/03/28 04:30:12;;;;;;;113.38;24.15;;;5.10;99.90;;;;;;5015429;28;20034;-77
2022/03/28 04:32:38;;;;;;;100.22;19.80;;;5.00;99.90;;;;;;5014673;28;20131;-77
2022/03/28 04:35:06;;;;;;;94.13;21.88;;;5.00;99.90;;;;;;5013754;28;20465;-78
2022/03/28 04:37:33;;;;;;;53.40;13.38;;;5.10;99.90;;;;;;5015207;28;20053;-78
2022/03/28 04:40:00;;;;;;;40.70;11.38;;;5.00;99.90;;;;;;5014410;28;20552;-77
2022/03/28 04:42:25;;;;;;;38.38;9.90;;;4.90;99.90;;;;;;5014593;28;20053;-77
2022/03/28 04:44:51;;;;;;;23.80;6.55;;;4.90;99.90;;;;;;5014805;28;20037;-78
2022/03/28 04:47:17;;;;;;;20.80;7.13;;;4.70;99.90;;;;;;5014921;28;20045;-77
2022/03/28 04:49:42;;;;;;;22.30;7.38;;;4.70;99.90;;;;;;5013191;28;20089;-78
2022/03/28 04:52:08;;;;;;;25.45;7.70;;;4.70;99.90;;;;;;5012103;28;20132;-77
2022/03/28 04:54:36;;;;;;;34.08;9.82;;;4.70;99.90;;;;;;5012204;28;20492;-78
2022/03/28 04:57:05;;;;;;;24.20;7.18;;;4.70;99.90;;;;;;5012523;28;20055;-77
2022/03/28 04:59:31;;;;;;;21.33;5.03;;;4.70;99.90;;;;;;5013025;28;20115;-78
2022/03/28 05:01:57;;;;;;;18.55;5.78;;;4.70;99.90;;;;;;5012659;28;20431;-78
2022/03/28 05:04:22;;;;;;;23.98;5.72;;;4.80;99.90;;;;;;4994677;28;20060;-78
2022/03/28 05:06:48;;;;;;;22.33;5.60;;;4.70;99.90;;;;;;5011681;28;20112;-77
2022/03/28 05:09:13;;;;;;;19.45;4.93;;;4.80;99.90;;;;;;5011910;28;20060;-78
2022/03/28 05:11:39;;;;;;;20.85;5.93;;;4.80;99.90;;;;;;5012867;28;20098;-77
2022/03/28 05:14:05;;;;;;;15.45;5.07;;;4.80;99.90;;;;;;5014191;28;20046;-77
2022/03/28 05:16:30;;;;;;;16.17;5.28;;;4.80;99.90;;;;;;5012985;28;20393;-78
2022/03/28 05:18:56;;;;;;;21.88;5.30;;;4.80;99.90;;;;;;5014264;28;20042;-78
2022/03/28 05:21:22;;;;;;;17.55;5.15;;;4.80;99.90;;;;;;5014437;28;20049;-78
2022/03/28 05:23:47;;;;;;;17.92;5.75;;;4.80;99.90;;;;;;5013866;28;20111;-78
2022/03/28 05:26:13;;;;;;;17.75;4.75;;;4.80;99.90;;;;;;5014076;28;20057;-77
2022/03/28 05:28:39;;;;;;;13.48;4.50;;;4.80;99.90;;;;;;5014199;28;20049;-78
2022/03/28 05:31:04;;;;;;;17.95;5.20;;;4.70;99.90;;;;;;5014360;28;20106;-78
2022/03/28 05:33:30;;;;;;;20.63;5.72;;;4.70;99.90;;;;;;5014206;28;20085;-78
2022/03/28 05:35:56;;;;;;;22.95;6.28;;;4.70;99.90;;;;;;5014146;28;20500;-77
2022/03/28 05:38:23;;;;;;;20.02;5.82;;;4.80;99.90;;;;;;5012873;28;20041;-78
2022/03/28 05:40:49;;;;;;;22.92;6.03;;;4.80;99.90;;;;;;5012855;28;20496;-78
2022/03/28 05:43:18;;;;;;;31.45;8.02;;;4.80;99.90;;;;;;5014210;28;20139;-78
2022/03/28 05:45:44;;;;;;;33.70;7.25;;;4.80;99.90;;;;;;5012978;28;20046;-78
2022/03/28 05:48:11;;;;;;;29.17;6.82;;;4.80;99.90;;;;;;5012440;28;20411;-78
2022/03/28 05:50:36;;;;;;;39.60;10.23;;;4.90;99.90;;;;;;5012448;28;20053;-78
2022/03/28 05:53:02;;;;;;;43.20;11.13;;;4.80;99.90;;;;;;5013308;28;20121;-78
2022/03/28 05:55:27;;;;;;;39.08;10.57;;;4.80;99.90;;;;;;5013385;28;20458;-77
2022/03/28 05:57:53;;;;;;;37.97;10.48;;;4.90;99.90;;;;;;5012275;28;20049;-78
2022/03/28 06:00:20;;;;;;;78.38;16.27;;;4.90;99.90;;;;;;5013778;28;20445;-77
2022/03/28 06:02:46;;;;;;;86.13;19.17;;;4.90;99.90;;;;;;5013574;28;20052;-77
2022/03/28 06:05:12;;;;;;;62.85;15.43;;;4.90;99.90;;;;;;5012451;28;20449;-78
2022/03/28 06:07:38;;;;;;;94.07;18.63;;;4.90;99.90;;;;;;5014184;28;20058;-77
2022/03/28 06:10:04;;;;;;;65.22;15.85;;;4.90;99.90;;;;;;5013794;28;20050;-78
2022/03/28 06:12:30;;;;;;;77.82;17.98;;;5.00;99.90;;;;;;5012365;28;20033;-78
2022/03/28 06:14:56;;;;;;;105.50;21.23;;;5.00;99.90;;;;;;5013698;28;20053;-78
2022/03/28 06:17:22;;;;;;;130.45;24.85;;;5.00;99.90;;;;;;5013277;28;20034;-78
2022/03/28 06:19:48;;;;;;;128.80;26.48;;;5.00;99.90;;;;;;5013783;28;20381;-78
2022/03/28 06:22:14;;;;;;;118.78;29.52;;;5.00;99.90;;;;;;5013690;28;20049;-77
2022/03/28 06:24:40;;;;;;;96.15;24.38;;;5.10;99.90;;;;;;5014035;28;20123;-78
2022/03/28 06:27:05;;;;;;;85.18;22.42;;;5.10;99.90;;;;;;5014575;28;20061;-78
2022/03/28 06:29:31;;;;;;;78.53;24.85;;;5.20;99.90;;;;;;5014522;28;20046;-78
2022/03/28 06:31:57;;;;;;;100.90;29.20;;;5.20;99.90;;;;;;5013768;28;20038;-77
2022/03/28 06:34:22;;;;;;;91.90;28.35;;;5.20;99.90;;;;;;5013484;28;20562;-78
2022/03/28 06:36:48;;;;;;;101.63;27.73;;;5.20;99.90;;;;;;5014113;28;20048;-78
2022/03/28 06:39:15;;;;;;;77.95;23.48;;;5.20;99.90;;;;;;5014139;28;20463;-78
2022/03/28 06:41:40;;;;;;;77.78;23.40;;;5.20;99.90;;;;;;5014112;28;20038;-77
2022/03/28 06:44:08;;;;;;;72.63;24.10;;;5.30;99.90;;;;;;5011186;28;20131;-78
2022/03/28 06:46:34;;;;;;;55.50;19.30;;;5.30;99.90;;;;;;4993929;28;20409;-78
2022/03/28 06:49:00;;;;;;;53.17;20.63;;;5.30;99.90;;;;;;4994388;28;20042;-78
2022/03/28 06:51:26;;;;;;;47.45;19.75;;;5.20;99.90;;;;;;4993218;28;20043;-78
2022/03/28 06:53:52;;;;;;;46.05;18.67;;;5.30;99.90;;;;;;4994275;28;20180;-78
2022/03/28 06:56:17;;;;;;;51.47;19.95;;;5.30;99.90;;;;;;4994851;28;20477;-78
2022/03/28 06:58:43;;;;;;;51.15;20.10;;;5.40;99.90;;;;;;4997425;28;20048;-78
2022/03/28 07:01:10;;;;;;;37.08;16.38;;;5.40;99.90;;;;;;4996936;28;20055;-78
2022/03/28 07:03:36;;;;;;;33.58;15.98;;;5.40;99.90;;;;;;4997418;28;20133;-78
2022/03/28 07:06:02;;;;;;;49.00;19.67;;;5.40;99.90;;;;;;4997148;28;20057;-78
2022/03/28 07:08:29;;;;;;;35.30;16.55;;;5.50;99.90;;;;;;4996894;28;20042;-78
2022/03/28 07:10:58;;;;;;;33.42;15.70;;;5.50;99.90;;;;;;4997253;28;20053;-79
2022/03/28 07:13:23;;;;;;;41.15;17.17;;;5.50;99.90;;;;;;4997398;28;20038;-79
2022/03/28 07:15:49;;;;;;;33.03;14.65;;;5.60;99.90;;;;;;4996823;28;20160;-79
2022/03/28 07:18:15;;;;;;;35.90;16.13;;;5.60;99.90;;;;;;4997012;28;20082;-79
2022/03/28 07:20:43;;;;;;;36.97;15.10;;;5.60;99.90;;;;;;4997132;28;20049;-79
2022/03/28 07:23:09;;;;;;;31.27;13.85;;;5.60;99.90;;;;;;4997374;28;20130;-79
2022/03/28 07:25:35;;;;;;;23.98;12.55;;;5.70;99.90;;;;;;4997202;28;20122;-79
2022/03/28 07:28:07;;;;;;;26.85;11.75;;;5.60;99.90;;;;;;4995911;28;20074;-79
2022/03/28 07:30:32;;;;;;;26.02;12.23;;;5.70;99.90;;;;;;4997599;28;20050;-79
2022/03/28 07:32:59;;;;;;;24.00;12.60;;;5.80;99.90;;;;;;4996841;28;20451;-79
2022/03/28 07:35:25;;;;;;;23.88;12.05;;;5.80;99.90;;;;;;4997140;28;20046;-79
2022/03/28 07:37:50;;;;;;;23.85;11.77;;;5.80;99.90;;;;;;4995350;28;20042;-79
2022/03/28 07:40:16;;;;;;;28.25;14.85;;;5.90;99.90;;;;;;4994513;28;20049;-80
2022/03/28 07:42:43;;;;;;;25.70;13.63;;;6.00;99.90;;;;;;4994237;28;20046;-79
2022/03/28 07:45:10;;;;;;;26.98;13.75;;;6.00;99.90;;;;;;4994921;28;20501;-79
2022/03/28 07:47:36;;;;;;;37.50;15.80;;;6.00;99.90;;;;;;4994728;28;20061;-79
2022/03/28 07:50:02;;;;;;;32.35;14.85;;;6.00;99.90;;;;;;4994449;28;20117;-80
2022/03/28 07:52:28;;;;;;;32.97;16.23;;;6.00;99.90;;;;;;4994383;28;20081;-79
2022/03/28 07:54:55;;;;;;;34.95;17.23;;;6.10;99.90;;;;;;4992776;28;20061;-79
2022/03/28 07:57:21;;;;;;;28.83;14.40;;;6.20;99.90;;;;;;4993626;28;20064;-79
2022/03/28 07:59:47;;;;;;;26.00;13.25;;;6.20;99.90;;;;;;4994782;28;20114;-79
2022/03/28 08:02:14;;;;;;;30.13;13.18;;;6.20;99.90;;;;;;4994502;28;20147;-79
2022/03/28 08:04:40;;;;;;;23.65;13.05;;;6.20;99.90;;;;;;4994406;28;20085;-79
2022/03/28 08:07:08;;;;;;;26.35;14.80;;;6.30;99.90;;;;;;4993903;28;20082;-80
2022/03/28 08:09:35;;;;;;;27.13;14.38;;;6.30;99.90;;;;;;4992126;28;20054;-80
2022/03/28 08:12:00;;;;;;;20.67;10.98;;;6.30;99.90;;;;;;4993569;28;20558;-80
2022/03/28 08:14:26;;;;;;;22.98;12.35;;;6.40;99.90;;;;;;4993505;28;20122;-79
2022/03/28 08:16:53;;;;;;;18.45;11.63;;;6.50;99.90;;;;;;4993571;28;20051;-80
2022/03/28 08:19:18;;;;;;;20.85;11.75;;;6.30;99.90;;;;;;4993897;28;20112;-80
2022/03/28 08:21:44;;;;;;;26.08;13.43;;;6.50;99.90;;;;;;4994198;28;20042;-79
2022/03/28 08:24:10;;;;;;;26.67;14.60;;;6.50;99.90;;;;;;4993752;28;20042;-79
2022/03/28 08:26:36;;;;;;;19.63;10.95;;;6.50;99.90;;;;;;4993531;28;20599;-80
2022/03/28 08:29:03;;;;;;;15.30;7.72;;;6.50;99.90;;;;;;4994160;28;20035;-80
2022/03/28 08:31:29;;;;;;;25.50;10.23;;;6.50;99.90;;;;;;4992334;28;20424;-80
2022/03/28 08:33:55;;;;;;;24.88;13.52;;;6.50;99.90;;;;;;4996353;28;20046;-79
2022/03/28 08:36:21;;;;;;;23.33;11.27;;;6.50;99.90;;;;;;4993971;28;20544;-80
2022/03/28 08:38:47;;;;;;;11.27;6.93;;;6.50;99.90;;;;;;4992997;28;20046;-80
2022/03/28 08:41:14;;;;;;;11.85;7.03;;;6.50;99.90;;;;;;5009539;28;20050;-79
2022/03/28 08:43:41;;;;;;;12.07;7.45;;;6.50;99.90;;;;;;5012651;28;20050;-80
2022/03/28 08:46:08;;;;;;;9.80;6.43;;;6.60;99.90;;;;;;5013005;28;20414;-80
2022/03/28 08:48:39;;;;;;;10.75;6.65;;;6.90;99.90;;;;;;5013242;28;20054;-79
2022/03/28 08:51:05;;;;;;;10.20;6.82;;;7.10;99.90;;;;;;5013136;28;20074;-80
2022/03/28 08:53:30;;;;;;;20.23;10.68;;;7.20;99.90;;;;;;5012744;28;20159;-80
2022/03/28 08:55:56;;;;;;;17.60;9.98;;;7.10;99.90;;;;;;5012739;28;20042;-79
2022/03/28 08:58:22;;;;;;;16.83;8.80;;;7.00;99.90;;;;;;5013302;28;20046;-79
2022/03/28 09:00:47;;;;;;;16.80;9.05;;;7.00;99.90;;;;;;5012607;28;20121;-80
2022/03/28 09:03:13;;;;;;;17.60;9.73;;;7.10;99.90;;;;;;5011815;28;20033;-80
2022/03/28 09:05:39;;;;;;;18.23;10.07;;;7.10;99.90;;;;;;4990705;28;20470;-79
2022/03/28 09:08:08;;;;;;;20.60;11.05;;;7.10;99.90;;;;;;4993096;28;20043;-79
2022/03/28 09:10:35;;;;;;;18.13;11.07;;;7.10;99.90;;;;;;4992271;28;20044;-80
2022/03/28 09:13:13;;;;;;;21.60;11.02;;;7.20;99.90;;;;;;4990030;28;20042;-79
2022/03/28 09:16:01;;;;;;;16.95;9.50;;;7.30;99.90;;;;;;4984517;28;20046;-79
2022/03/28 09:18:29;;;;;;;22.15;12.10;;;7.40;99.90;;;;;;4974280;28;20054;-79
2022/03/28 09:21:00;;;;;;;26.08;14.35;;;7.30;99.90;;;;;;4966091;28;20472;-79
2022/03/28 09:23:33;;;;;;;26.30;14.80;;;7.50;99.90;;;;;;4972479;28;20285;-80
2022/03/28 09:26:05;;;;;;;21.60;11.73;;;7.60;99.90;;;;;;4980152;28;20046;-80
2022/03/28 09:28:46;;;;;;;20.02;10.43;;;7.50;99.90;;;;;;4992790;28;20489;-80
2022/03/28 09:31:39;;;;;;;15.88;10.25;;;7.50;99.90;;;;;;4995099;28;20133;-80
2022/03/28 09:34:11;;;;;;;17.85;10.40;;;7.70;99.90;;;;;;4995047;28;20050;-80
2022/03/28 09:36:53;;;;;;;14.70;9.68;;;7.60;99.90;;;;;;4993127;28;20042;-80
2022/03/28 09:39:25;;;;;;;16.42;10.60;;;7.60;99.90;;;;;;4993162;28;20049;-80
2022/03/28 09:42:08;;;;;;;16.95;10.63;;;7.80;99.90;;;;;;4994197;28;20104;-80
2022/03/28 09:44:43;;;;;;;17.48;10.60;;;7.90;99.90;;;;;;4994194;28;20092;-80
2022/03/28 09:47:18;;;;;;;19.50;10.90;;;8.20;99.90;;;;;;4994410;28;20125;-79
2022/03/28 09:49:45;;;;;;;17.98;10.68;;;8.20;99.90;;;;;;4994021;28;20126;-80
2022/03/28 09:52:17;;;;;;;15.27;10.00;;;8.20;99.90;;;;;;4992845;28;20061;-80
2022/03/28 09:55:10;;;;;;;18.60;11.50;;;8.30;99.90;;;;;;4993928;28;20125;-80
2022/03/28 09:57:37;;;;;;;20.83;11.68;;;8.40;99.90;;;;;;4993082;28;20089;-80
2022/03/28 10:00:13;;;;;;;23.23;13.23;;;8.70;99.90;;;;;;4993572;28;20482;-80
2022/03/28 10:02:39;;;;;;;27.25;12.05;;;8.80;99.90;;;;;;4992157;28;20042;-81
2022/03/28 10:05:06;;;;;;;16.95;11.38;;;8.90;99.90;;;;;;4993699;28;20097;-81
2022/03/28 10:07:32;;;;;;;17.27;9.65;;;9.10;99.90;;;;;;4993771;28;20114;-80
2022/03/28 10:09:59;;;;;;;17.38;10.73;;;9.10;99.90;;;;;;4993224;28;20100;-80
2022/03/28 10:12:25;;;;;;;14.80;9.93;;;8.90;99.90;;;;;;4993352;28;20381;-80
2022/03/28 10:15:00;;;;;;;18.30;10.40;;;9.00;99.90;;;;;;4993587;28;20042;-79
2022/03/28 10:17:31;;;;;;;20.85;12.32;;;8.80;99.90;;;;;;4993524;28;20490;-80
2022/03/28 10:19:58;;;;;;;26.13;14.43;;;8.70;99.90;;;;;;4993768;28;20070;-80
2022/03/28 10:22:35;;;;;;;17.50;11.05;;;8.90;99.90;;;;;;4993011;28;20042;-79
2022/03/28 10:25:08;;;;;;;23.45;13.60;;;9.00;99.90;;;;;;4991454;28;20493;-79
2022/03/28 10:27:36;;;;;;;22.85;12.48;;;8.90;99.90;;;;;;4993262;28;20054;-79
2022/03/28 10:30:20;;;;;;;21.60;12.30;;;9.00;99.90;;;;;;4993454;28;20576;-80
2022/03/28 10:32:46;;;;;;;15.40;10.68;;;9.00;99.90;;;;;;4992777;28;20480;-79
2022/03/28 10:35:13;;;;;;;19.30;10.85;;;9.20;99.90;;;;;;4993278;28;20121;-79
2022/03/28 10:37:50;;;;;;;21.27;11.43;;;9.10;99.90;;;;;;4991825;28;20053;-80
2022/03/28 10:40:30;;;;;;;15.80;10.30;;;9.30;99.90;;;;;;4990090;28;20047;-79
2022/03/28 10:43:14;;;;;;;19.40;11.20;;;9.80;99.90;;;;;;4991425;28;20113;-76
2022/03/28 10:45:56;;;;;;;16.02;9.70;;;9.90;99.90;;;;;;4990944;28;20109;-80
2022/03/28 10:48:44;;;;;;;15.65;9.60;;;10.40;99.90;;;;;;4991604;28;20038;-77
2022/03/28 10:51:12;;;;;;;17.95;10.57;;;10.80;99.90;;;;;;4989636;28;20046;-78
2022/03/28 10:53:47;;;;;;;15.48;9.82;;;11.20;99.90;;;;;;4990812;28;20050;-78
2022/03/28 10:56:31;;;;;;;16.33;10.93;;;11.30;99.90;;;;;;4990716;28;20133;-79
2022/03/28 10:59:06;;;;;;;14.45;9.38;;;11.20;99.90;;;;;;4989400;28;20060;-78
2022/03/28 11:01:37;;;;;;;17.15;10.55;;;11.50;99.90;;;;;;4991125;28;20042;-78
2022/03/28 11:04:16;;;;;;;17.98;10.95;;;11.40;99.90;;;;;;4991679;28;20390;-79
2022/03/28 11:06:47;;;;;;;14.35;9.77;;;11.30;99.90;;;;;;4991142;28;20042;-79
2022/03/28 11:09:13;;;;;;;20.00;10.45;;;11.20;99.90;;;;;;4993673;28;20050;-79
2022/03/28 11:12:04;;;;;;;15.20;10.02;;;11.20;99.90;;;;;;4993513;28;20137;-79
2022/03/28 11:14:44;;;;;;;13.00;9.93;;;11.50;99.90;;;;;;4994040;28;20117;-79
2022/03/28 11:17:20;;;;;;;16.20;10.45;;;11.30;99.90;;;;;;4993830;28;20046;-78
2022/03/28 11:19:53;;;;;;;42.42;12.88;;;11.40;99.90;;;;;;4992577;28;20397;-77
2022/03/28 11:22:18;;;;;;;18.35;10.52;;;11.20;99.90;;;;;;4993553;28;20413;-78
2022/03/28 11:24:47;;;;;;;17.48;10.07;;;11.00;99.90;;;;;;4993951;28;20050;-79
2022/03/28 11:27:18;;;;;;;25.60;11.90;;;11.60;99.90;;;;;;4993425;28;20042;-80
2022/03/28 11:29:45;;;;;;;17.38;10.50;;;11.40;99.90;;;;;;4993684;28;20050;-79
2022/03/28 11:32:14;;;;;;;31.13;15.40;;;11.50;99.90;;;;;;4994143;28;20040;-80
2022/03/28 11:34:40;;;;;;;18.52;10.32;;;12.00;99.90;;;;;;4993560;28;20512;-81
2022/03/28 11:37:07;;;;;;;19.70;11.75;;;12.30;99.90;;;;;;4993146;28;20434;-81
2022/03/28 11:40:02;;;;;;;15.57;11.00;;;12.50;99.90;;;;;;4994955;28;20096;-81
2022/03/28 11:42:30;;;;;;;14.45;9.75;;;12.70;99.90;;;;;;4994783;28;20045;-81
2022/03/28 11:45:01;;;;;;;20.38;12.50;;;12.50;99.90;;;;;;4997599;28;20047;-80
2022/03/28 11:47:27;;;;;;;18.40;11.57;;;12.50;99.90;;;;;;4997774;28;20050;-82
2022/03/28 11:49:56;;;;;;;18.70;11.63;;;12.60;99.90;;;;;;4997204;28;20108;-81
2022/03/28 11:52:23;;;;;;;17.25;11.98;;;12.60;99.90;;;;;;4997711;28;20046;-81
2022/03/28 11:54:49;;;;;;;16.17;10.45;;;12.70;99.90;;;;;;4997357;28;20056;-79
2022/03/28 12:00:23;;;;;;;15.30;10.60;;;13.00;99.90;;;;;;4997292;28;20121;-80
2022/03/28 12:02:54;;;;;;;16.05;11.07;;;13.20;99.90;;;;;;4997246;28;20449;-81
2022/03/28 12:05:34;;;;;;;15.30;11.18;;;13.10;99.90;;;;;;4996206;28;20093;-82
2022/03/28 12:08:05;;;;;;;17.23;10.75;;;14.00;99.90;;;;;;4997617;28;20104;-83
2022/03/28 12:10:34;;;;;;;17.55;11.15;;;13.80;99.90;;;;;;4997691;28;20100;-82
2022/03/28 12:13:03;;;;;;;18.73;11.10;;;14.20;99.90;;;;;;5000004;28;20042;-82
2022/03/28 12:15:31;;;;;;;19.25;10.88;;;14.90;99.90;;;;;;4998359;28;20050;-82
2022/03/28 12:18:01;;;;;;;22.38;11.80;;;15.10;99.90;;;;;;5000394;28;20049;-83
2022/03/28 12:20:33;;;;;;;15.55;10.38;;;14.90;99.90;;;;;;5000061;28;20092;-82
2022/03/28 12:23:01;;;;;;;15.43;10.82;;;15.10;99.90;;;;;;4979361;28;20128;-81
2022/03/28 12:25:47;;;;;;;15.85;10.95;;;14.40;99.90;;;;;;4996744;28;20082;-81
2022/03/28 12:28:15;;;;;;;15.40;10.77;;;14.50;99.90;;;;;;4995729;28;20054;-81
2022/03/28 12:30:47;;;;;;;15.52;11.57;;;14.10;99.90;;;;;;4996433;28;20100;-82
2022/03/28 12:33:22;;;;;;;17.13;10.50;;;13.90;99.90;;;;;;4996406;28;20061;-82
2022/03/28 12:35:53;;;;;;;13.52;10.65;;;13.80;99.90;;;;;;4995314;28;20089;-81
2022/03/28 12:38:21;;;;;;;14.20;10.57;;;13.40;99.90;;;;;;4996904;28;20052;-82
2022/03/28 12:40:53;;;;;;;16.25;11.40;;;13.20;99.90;;;;;;4996969;28;20049;-83
2022/03/28 12:43:23;;;;;;;15.30;11.23;;;13.30;99.90;;;;;;4996116;28;20054;-82
2022/03/28 12:45:51;;;;;;;16.05;11.38;;;13.60;99.90;;;;;;4995210;28;20470;-81